Time;durP1;ratioP1;P1;durP2;ratioP2;P2;SDS_P1;SDS_P2;PMS_P1;PMS_P2;Temp;Humidity;BMP_temperature;BMP_pressure;BME280_temperature;BME280_humidity;BME280_pressure;Samples;Min_cycle;Max_cycle;Signal;HPM_P1;HPM_P2
2021/01/08 00:01:15;;;;;;;;;;;;;;;;;;5044792;28;20407;-81
2021/01/08 00:03:41;;;;;;;;;;;;;;;;;;5042110;28;20420;-81
2021/01/08 00:06:07;;;;;;;;;;;;;;;;;;5043524;28;20395;-82
2021/01/08 00:08:34;;;;;;;;;;;;;;;;;;5041591;28;20387;-82
2021/01/08 00:11:04;;;;;;;;;;;;;;;;;;5041114;28;20395;-82
2021/01/08 00:13:32;;;;;;;;;;;;;;;;;;5041328;28;20548;-82
2021/01/08 00:15:59;;;;;;;;;;;;;;;;;;5041511;28;20394;-83
2021/01/08 00:18:25;;;;;;;;;;;;;;;;;;5041669;28;20879;-83
2021/01/08 00:20:51;;;;;;;;;;;;;;;;;;5028007;28;20386;-82
2021/01/08 00:23:18;;;;;;;;;;;;;;;;;;5031802;28;20453;-82
2021/01/08 00:25:44;;;;;;;;;;;;;;;;;;5045487;28;20390;-82
2021/01/08 00:28:10;;;;;;;;;;;;;;;;;;5030321;28;20391;-82
2021/01/08 00:30:37;;;;;;;;;;;;;;;;;;5041126;28;20390;-82
2021/01/08 00:33:03;;;;;;;;;;;;;;;;;;5049999;28;20387;-82
2021/01/08 00:35:30;;;;;;;;;;;;;;;;;;5042161;28;20440;-82
2021/01/08 00:37:56;;;;;;;;;;;;;;;;;;5042015;28;20394;-82
2021/01/08 00:40:22;;;;;;;;;;;;;;;;;;5042556;28;20387;-82
2021/01/08 00:42:49;;;;;;;;;;;;;;;;;;5044803;28;20411;-82
2021/01/08 00:45:15;;;;;;;;;;;;;;;;;;5060252;28;20405;-82
2021/01/08 00:47:41;;;;;;;;;;;;;;;;;;5061039;28;20385;-82
2021/01/08 00:50:08;;;;;;;;;;;;;;;;;;5059999;28;20376;-82
2021/01/08 00:52:34;;;;;;;;;;;;;;;;;;5059357;28;20395;-82
2021/01/08 00:55:00;;;;;;;;;;;;;;;;;;5061564;28;20431;-82
2021/01/08 00:57:27;;;;;;;;;;;;;;;;;;5060008;28;20395;-82
2021/01/08 00:59:53;;;;;;;;;;;;;;;;;;5060056;28;20380;-82
2021/01/08 01:02:20;;;;;;;;;;;;;;;;;;5060231;28;20412;-82
2021/01/08 01:04:46;;;;;;;;;;;;;;;;;;5060556;28;20400;-82
2021/01/08 01:07:12;;;;;;;;;;;;;;;;;;5059530;28;20388;-82
2021/01/08 01:09:39;;;;;;;;;;;;;;;;;;5060382;28;20397;-82
2021/01/08 01:12:05;;;;;;;;;;;;;;;;;;5058104;28;20388;-82
2021/01/08 01:14:31;;;;;;;;;;;;;;;;;;5058439;28;20927;-83
2021/01/08 01:16:58;;;;;;;;;;;;;;;;;;5059093;28;20411;-82
2021/01/08 01:19:24;;;;;;;;;;;;;;;;;;5058839;28;20388;-82
2021/01/08 01:21:50;;;;;;;;;;;;;;;;;;5058786;28;20404;-83
2021/01/08 01:24:17;;;;;;;;;;;;;;;;;;5060312;28;20400;-82
2021/01/08 01:26:43;;;;;;;;;;;;;;;;;;5060578;28;20807;-85
2021/01/08 01:29:10;;;;;;;;;;;;;;;;;;5057535;28;20391;-82
2021/01/08 01:31:36;;;;;;;;;;;;;;;;;;5057150;28;20392;-82
2021/01/08 01:34:02;;;;;;;;;;;;;;;;;;5056647;28;20403;-82
2021/01/08 01:36:29;;;;;;;;;;;;;;;;;;5056832;28;20384;-82
2021/01/08 01:38:55;;;;;;;;;;;;;;;;;;5056380;28;20388;-82
2021/01/08 01:41:21;;;;;;;;;;;;;;;;;;5058157;28;20399;-82
2021/01/08 01:43:48;;;;;;;;;;;;;;;;;;5072155;28;20418;-83
2021/01/08 01:46:14;;;;;;;;;;;;;;;;;;5044643;28;20460;-83
2021/01/08 01:48:41;;;;;;;;;;;;;;;;;;5061593;28;20388;-82
2021/01/08 01:51:07;;;;;;;;;;;;;;;;;;5063534;28;20457;-82
2021/01/08 01:53:33;;;;;;;;;;;;;;;;;;5043449;28;20414;-82
2021/01/08 01:56:00;;;;;;;;;;;;;;;;;;5042886;28;20444;-82
2021/01/08 01:58:26;;;;;;;;;;;;;;;;;;5045269;28;20386;-82
2021/01/08 02:00:52;;;;;;;;;;;;;;;;;;5052570;28;20384;-82
2021/01/08 02:03:19;;;;;;;;;;;;;;;;;;5044235;28;20414;-83
2021/01/08 02:05:45;;;;;;;;;;;;;;;;;;5050312;28;20807;-82
2021/01/08 02:08:11;;;;;;;;;;;;;;;;;;5060575;28;20391;-82
2021/01/08 02:10:38;;;;;;;;;;;;;;;;;;5053528;28;20395;-82
2021/01/08 02:13:04;;;;;;;;;;;;;;;;;;5062620;28;20387;-82
2021/01/08 02:15:31;;;;;;;;;;;;;;;;;;5061429;28;20388;-82
2021/01/08 02:17:57;;;;;;;;;;;;;;;;;;5057905;28;20383;-82
2021/01/08 02:20:26;;;;;;;;;;;;;;;;;;5040858;28;20831;-83
2021/01/08 02:22:52;;;;;;;;;;;;;;;;;;5041288;28;20497;-82
2021/01/08 02:25:18;;;;;;;;;;;;;;;;;;5041805;28;20426;-83
2021/01/08 02:27:45;;;;;;;;;;;;;;;;;;5042346;28;20387;-83
2021/01/08 02:30:11;;;;;;;;;;;;;;;;;;5035602;28;20398;-82
2021/01/08 02:32:37;;;;;;;;;;;;;;;;;;5041694;28;20394;-82
2021/01/08 02:35:04;;;;;;;;;;;;;;;;;;5024636;28;20425;-82
2021/01/08 02:37:30;;;;;;;;;;;;;;;;;;5020568;28;20448;-82
2021/01/08 02:39:56;;;;;;;;;;;;;;;;;;5022414;28;20397;-85
2021/01/08 02:42:23;;;;;;;;;;;;;;;;;;5042818;28;20410;-85
2021/01/08 02:44:49;;;;;;;;;;;;;;;;;;5058899;28;20423;-83
2021/01/08 02:47:16;;;;;;;;;;;;;;;;;;5062442;28;20380;-83
2021/01/08 02:49:42;;;;;;;;;;;;;;;;;;5062783;28;20415;-81
2021/01/08 02:52:08;;;;;;;;;;;;;;;;;;5060565;28;20442;-81
2021/01/08 02:54:35;;;;;;;;;;;;;;;;;;5061697;28;20799;-82
2021/01/08 02:57:01;;;;;;;;;;;;;;;;;;5061361;28;20384;-82
2021/01/08 02:59:27;;;;;;;;;;;;;;;;;;5062812;28;20384;-82
2021/01/08 03:01:54;;;;;;;;;;;;;;;;;;5064423;28;20400;-83
2021/01/08 03:04:20;;;;;;;;;;;;;;;;;;5063476;28;20404;-82
2021/01/08 03:06:47;;;;;;;;;;;;;;;;;;5061178;28;20434;-83
2021/01/08 03:09:13;;;;;;;;;;;;;;;;;;5061245;28;20376;-82
2021/01/08 03:11:39;;;;;;;;;;;;;;;;;;5058278;28;20396;-83
2021/01/08 03:14:06;;;;;;;;;;;;;;;;;;5060320;28;20400;-82
2021/01/08 03:16:32;;;;;;;;;;;;;;;;;;5061084;28;20376;-82
2021/01/08 03:18:58;;;;;;;;;;;;;;;;;;5061140;28;20384;-82
2021/01/08 03:21:25;;;;;;;;;;;;;;;;;;5061552;28;20408;-82
2021/01/08 03:23:51;;;;;;;;;;;;;;;;;;5060509;28;20415;-82
2021/01/08 03:26:18;;;;;;;;;;;;;;;;;;5060192;28;20397;-82
2021/01/08 03:28:44;;;;;;;;;;;;;;;;;;5060231;28;20384;-82
2021/01/08 03:31:10;;;;;;;;;;;;;;;;;;5060152;28;20392;-81
2021/01/08 03:33:37;;;;;;;;;;;;;;;;;;5059580;28;20884;-81
2021/01/08 03:36:03;;;;;;;;;;;;;;;;;;5060029;28;20446;-82
2021/01/08 03:38:29;;;;;;;;;;;;;;;;;;5060785;28;20391;-82
2021/01/08 03:40:56;;;;;;;;;;;;;;;;;;5074669;28;20372;-81
2021/01/08 03:43:22;;;;;;;;;;;;;;;;;;5059538;28;20424;-82
2021/01/08 03:45:48;;;;;;;;;;;;;;;;;;5059413;28;20376;-82
2021/01/08 03:48:15;;;;;;;;;;;;;;;;;;5059287;28;20399;-82
2021/01/08 03:50:41;;;;;;;;;;;;;;;;;;5036298;28;20397;-81
2021/01/08 03:53:08;;;;;;;;;;;;;;;;;;5039222;28;20394;-82
2021/01/08 03:55:34;;;;;;;;;;;;;;;;;;5042781;28;20383;-82
2021/01/08 03:58:00;;;;;;;;;;;;;;;;;;5051621;28;20379;-82
2021/01/08 04:00:27;;;;;;;;;;;;;;;;;;5037933;28;20391;-81
2021/01/08 04:02:53;;;;;;;;;;;;;;;;;;5053259;28;20411;-82
2021/01/08 04:05:19;;;;;;;;;;;;;;;;;;5071323;28;20411;-83
2021/01/08 04:07:46;;;;;;;;;;;;;;;;;;5052807;28;20380;-82
2021/01/08 04:10:12;;;;;;;;;;;;;;;;;;5060337;28;20400;-82
2021/01/08 04:12:39;;;;;;;;;;;;;;;;;;5061572;28;20562;-82
2021/01/08 04:15:05;;;;;;;;;;;;;;;;;;5056928;28;20422;-81
2021/01/08 04:17:32;;;;;;;;;;;;;;;;;;5043634;28;20390;-82
2021/01/08 04:19:58;;;;;;;;;;;;;;;;;;5040737;28;20474;-82
2021/01/08 04:22:24;;;;;;;;;;;;;;;;;;5040182;28;20407;-82
2021/01/08 04:24:51;;;;;;;;;;;;;;;;;;5040193;28;20772;-82
2021/01/08 04:27:17;;;;;;;;;;;;;;;;;;5039894;28;20764;-82
2021/01/08 04:29:43;;;;;;;;;;;;;;;;;;5046355;28;20392;-82
2021/01/08 04:32:10;;;;;;;;;;;;;;;;;;5059545;28;20388;-82
2021/01/08 04:34:36;;;;;;;;;;;;;;;;;;5054124;28;20721;-82
2021/01/08 04:37:03;;;;;;;;;;;;;;;;;;5040914;28;20383;-82
2021/01/08 04:39:29;;;;;;;;;;;;;;;;;;5042530;28;20405;-82
2021/01/08 04:41:55;;;;;;;;;;;;;;;;;;5040400;28;20461;-82
2021/01/08 04:44:22;;;;;;;;;;;;;;;;;;5039328;28;20426;-83
2021/01/08 04:46:48;;;;;;;;;;;;;;;;;;5040601;28;20395;-82
2021/01/08 04:49:15;;;;;;;;;;;;;;;;;;5040357;28;20386;-82
2021/01/08 04:51:41;;;;;;;;;;;;;;;;;;5040179;28;20383;-82
2021/01/08 04:54:07;;;;;;;;;;;;;;;;;;5039961;28;20744;-82
2021/01/08 04:56:34;;;;;;;;;;;;;;;;;;5043197;28;20386;-81
2021/01/08 04:59:00;;;;;;;;;;;;;;;;;;5041400;28;20383;-82
2021/01/08 05:01:26;;;;;;;;;;;;;;;;;;5040790;28;20407;-82
2021/01/08 05:03:53;;;;;;;;;;;;;;;;;;5040959;28;20411;-82
2021/01/08 05:06:19;;;;;;;;;;;;;;;;;;5039709;28;20390;-82
2021/01/08 05:08:45;;;;;;;;;;;;;;;;;;5039825;28;20774;-82
2021/01/08 05:11:12;;;;;;;;;;;;;;;;;;5040136;28;20390;-82
2021/01/08 05:13:39;;;;;;;;;;;;;;;;;;5039093;28;20415;-82
2021/01/08 05:16:05;;;;;;;;;;;;;;;;;;5039375;28;20395;-82
2021/01/08 05:18:31;;;;;;;;;;;;;;;;;;5040418;28;20432;-82
2021/01/08 05:20:58;;;;;;;;;;;;;;;;;;5049888;28;20390;-81
2021/01/08 05:23:24;;;;;;;;;;;;;;;;;;5040771;28;20402;-82
2021/01/08 05:25:51;;;;;;;;;;;;;;;;;;5039078;28;20387;-82
2021/01/08 05:28:17;;;;;;;;;;;;;;;;;;5039849;28;20413;-83
2021/01/08 05:30:43;;;;;;;;;;;;;;;;;;5039576;28;20383;-82
2021/01/08 05:33:10;;;;;;;;;;;;;;;;;;5039407;28;20383;-82
2021/01/08 05:35:36;;;;;;;;;;;;;;;;;;5039165;28;20418;-82
2021/01/08 05:38:03;;;;;;;;;;;;;;;;;;5040471;28;20791;-82
2021/01/08 05:40:29;;;;;;;;;;;;;;;;;;5039443;28;20395;-82
2021/01/08 05:42:55;;;;;;;;;;;;;;;;;;5041162;28;20507;-82
2021/01/08 05:45:22;;;;;;;;;;;;;;;;;;5059833;28;20415;-82
2021/01/08 05:47:48;;;;;;;;;;;;;;;;;;5047429;28;20387;-82
2021/01/08 05:50:14;;;;;;;;;;;;;;;;;;5040255;28;20394;-82
2021/01/08 05:52:41;;;;;;;;;;;;;;;;;;5039038;28;20391;-82
2021/01/08 05:55:07;;;;;;;;;;;;;;;;;;5040377;28;20402;-82
2021/01/08 05:57:34;;;;;;;;;;;;;;;;;;5040061;28;20388;-82
2021/01/08 06:00:00;;;;;;;;;;;;;;;;;;5040096;28;20399;-82
2021/01/08 06:02:26;;;;;;;;;;;;;;;;;;5039285;28;20414;-82
2021/01/08 06:04:53;;;;;;;;;;;;;;;;;;5039436;28;20421;-82
2021/01/08 06:07:19;;;;;;;;;;;;;;;;;;5039161;28;20421;-82
2021/01/08 06:09:45;;;;;;;;;;;;;;;;;;5039555;28;20391;-83
2021/01/08 06:12:12;;;;;;;;;;;;;;;;;;5041998;28;20394;-82
2021/01/08 06:14:38;;;;;;;;;;;;;;;;;;5041458;28;20410;-82
2021/01/08 06:17:04;;;;;;;;;;;;;;;;;;5041468;28;20391;-82
2021/01/08 06:19:31;;;;;;;;;;;;;;;;;;5043204;28;20394;-82
2021/01/08 06:21:57;;;;;;;;;;;;;;;;;;5038181;28;20403;-82
2021/01/08 06:24:24;;;;;;;;;;;;;;;;;;5047691;28;20434;-82
2021/01/08 06:26:50;;;;;;;;;;;;;;;;;;5049634;28;20379;-82
2021/01/08 06:29:17;;;;;;;;;;;;;;;;;;5053466;28;20383;-81
2021/01/08 06:31:43;;;;;;;;;;;;;;;;;;5051189;28;20387;-81
2021/01/08 06:34:10;;;;;;;;;;;;;;;;;;5043836;28;20409;-82
2021/01/08 06:36:36;;;;;;;;;;;;;;;;;;5044984;28;20417;-82
2021/01/08 06:39:02;;;;;;;;;;;;;;;;;;5044507;28;20458;-82
2021/01/08 06:41:29;;;;;;;;;;;;;;;;;;5043225;28;20406;-82
2021/01/08 06:43:56;;;;;;;;;;;;;;;;;;5052625;28;20415;-82
2021/01/08 06:46:22;;;;;;;;;;;;;;;;;;5061569;28;20395;-82
2021/01/08 06:48:49;;;;;;;;;;;;;;;;;;5063294;28;20399;-82
2021/01/08 06:51:15;;;;;;;;;;;;;;;;;;5063813;28;20411;-82
2021/01/08 06:53:41;;;;;;;;;;;;;;;;;;5062176;28;20400;-81
2021/01/08 06:56:08;;;;;;;;;;;;;;;;;;5065698;28;20791;-81
2021/01/08 06:58:34;;;;;;;;;;;;;;;;;;5071566;28;20775;-80
2021/01/08 07:01:01;;;;;;;;;;;;;;;;;;5068926;28;20407;-81
2021/01/08 07:03:27;;;;;;;;;;;;;;;;;;5074730;28;20416;-81
2021/01/08 07:05:53;;;;;;;;;;;;;;;;;;5074748;28;20399;-80
2021/01/08 07:08:20;;;;;;;;;;;;;;;;;;5069678;28;20394;-80
2021/01/08 07:10:46;;;;;;;;;;;;;;;;;;5068617;28;20459;-81
2021/01/08 07:13:12;;;;;;;;;;;;;;;;;;5054306;28;20378;-81
2021/01/08 07:15:39;;;;;;;;;;;;;;;;;;5072697;28;20396;-81
2021/01/08 07:18:05;;;;;;;;;;;;;;;;;;5062904;28;20396;-82
2021/01/08 07:20:31;;;;;;;;;;;;;;;;;;5061981;28;20396;-82
2021/01/08 07:22:58;;;;;;;;;;;;;;;;;;5061157;28;20411;-82
2021/01/08 07:25:24;;;;;;;;;;;;;;;;;;5060513;28;20404;-82
2021/01/08 07:27:51;;;;;;;;;;;;;;;;;;5052106;28;20410;-82
2021/01/08 07:30:17;;;;;;;;;;;;;;;;;;5051394;28;20391;-81
2021/01/08 07:32:43;;;;;;;;;;;;;;;;;;5061171;28;20415;-82
2021/01/08 07:35:10;;;;;;;;;;;;;;;;;;5055025;28;20396;-82
2021/01/08 07:37:36;;;;;;;;;;;;;;;;;;5062045;28;20426;-82
2021/01/08 07:40:03;;;;;;;;;;;;;;;;;;5060172;28;20377;-82
2021/01/08 07:42:30;;;;;;;;;;;;;;;;;;5060771;28;21438;-82
2021/01/08 07:44:56;;;;;;;;;;;;;;;;;;5053713;28;20408;-82
2021/01/08 07:47:23;;;;;;;;;;;;;;;;;;5061888;28;20380;-81
2021/01/08 07:49:49;;;;;;;;;;;;;;;;;;5062365;28;20867;-81
2021/01/08 07:52:16;;;;;;;;;;;;;;;;;;5056620;28;20432;-81
2021/01/08 07:54:42;;;;;;;;;;;;;;;;;;5057078;28;20411;-82
2021/01/08 07:57:08;;;;;;;;;;;;;;;;;;5058875;28;20377;-81
2021/01/08 07:59:35;;;;;;;;;;;;;;;;;;5061745;28;20388;-81
2021/01/08 08:02:01;;;;;;;;;;;;;;;;;;5060668;28;20880;-80
2021/01/08 08:04:28;;;;;;;;;;;;;;;;;;5060962;28;20420;-81
2021/01/08 08:06:54;;;;;;;;;;;;;;;;;;5059609;28;20388;-80
2021/01/08 08:09:20;;;;;;;;;;;;;;;;;;5063339;28;20388;-81
2021/01/08 08:11:47;;;;;;;;;;;;;;;;;;5058211;28;20395;-81
2021/01/08 08:14:13;;;;;;;;;;;;;;;;;;5066622;28;20404;-81
2021/01/08 08:16:40;;;;;;;;;;;;;;;;;;5060360;28;20388;-83
2021/01/08 08:19:06;;;;;;;;;;;;;;;;;;5060387;28;20472;-82
2021/01/08 08:21:32;;;;;;;;;;;;;;;;;;5060320;28;20471;-82
2021/01/08 08:24:01;;;;;;;;;;;;;;;;;;5056673;28;20407;-82
2021/01/08 08:26:27;;;;;;;;;;;;;;;;;;5055387;28;20383;-83
2021/01/08 08:28:54;;;;;;;;;;;;;;;;;;5052438;28;20852;-82
2021/01/08 08:31:20;;;;;;;;;;;;;;;;;;5060848;28;20376;-83
2021/01/08 08:33:46;;;;;;;;;;;;;;;;;;5067713;28;20415;-82
2021/01/08 08:36:13;;;;;;;;;;;;;;;;;;5060444;28;20388;-82
2021/01/08 08:38:39;;;;;;;;;;;;;;;;;;5060218;28;20471;-82
2021/01/08 08:41:06;;;;;;;;;;;;;;;;;;5062620;28;20384;-82
2021/01/08 08:43:32;;;;;;;;;;;;;;;;;;5066076;28;20416;-82
2021/01/08 08:45:59;;;;;;;;;;;;;;;;;;5070282;28;20395;-81
2021/01/08 08:48:25;;;;;;;;;;;;;;;;;;5069597;28;20398;-82
2021/01/08 08:50:51;;;;;;;;;;;;;;;;;;5069041;28;20376;-83
2021/01/08 08:53:18;;;;;;;;;;;;;;;;;;5067416;28;20394;-83
2021/01/08 08:55:45;;;;;;;;;;;;;;;;;;5064495;28;20380;-82
2021/01/08 08:58:12;;;;;;;;;;;;;;;;;;5052955;28;20398;-83
2021/01/08 09:00:38;;;;;;;;;;;;;;;;;;5062574;28;20396;-81
2021/01/08 09:03:04;;;;;;;;;;;;;;;;;;5061615;28;20423;-82
2021/01/08 09:05:31;;;;;;;;;;;;;;;;;;5066885;28;20431;-81
2021/01/08 09:07:57;;;;;;;;;;;;;;;;;;5059854;28;20386;-82
2021/01/08 09:10:24;;;;;;;;;;;;;;;;;;5055411;28;20424;-82
2021/01/08 09:12:50;;;;;;;;;;;;;;;;;;5049198;28;20387;-81
2021/01/08 09:15:17;;;;;;;;;;;;;;;;;;5044977;28;20406;-81
2021/01/08 09:17:43;;;;;;;;;;;;;;;;;;5051565;28;20388;-82
2021/01/08 09:20:09;;;;;;;;;;;;;;;;;;5055324;28;20392;-80
2021/01/08 09:22:36;;;;;;;;;;;;;;;;;;5066217;28;20388;-81
2021/01/08 09:25:03;;;;;;;;;;;;;;;;;;5064854;28;20427;-82
2021/01/08 09:27:29;;;;;;;;;;;;;;;;;;5061231;28;20438;-82
2021/01/08 09:29:56;;;;;;;;;;;;;;;;;;5063082;28;20384;-80
2021/01/08 09:32:22;;;;;;;;;;;;;;;;;;5066203;28;20371;-83
2021/01/08 09:34:49;;;;;;;;;;;;;;;;;;5069439;28;20415;-83
2021/01/08 09:37:15;;;;;;;;;;;;;;;;;;5064260;28;20379;-84
2021/01/08 09:39:43;;;;;;;;;;;;;;;;;;5065769;28;20482;-83
2021/01/08 09:42:10;;;;;;;;;;;;;;;;;;5064373;28;20418;-82
2021/01/08 09:44:37;;;;;;;;;;;;;;;;;;5059700;28;20887;-82
2021/01/08 09:47:04;;;;;;;;;;;;;;;;;;5052684;28;20380;-81
2021/01/08 09:49:30;;;;;;;;;;;;;;;;;;5056487;28;20384;-81
2021/01/08 09:51:57;;;;;;;;;;;;;;;;;;5057248;28;20380;-81
2021/01/08 09:54:23;;;;;;;;;;;;;;;;;;5061823;28;20403;-81
2021/01/08 09:56:49;;;;;;;;;;;;;;;;;;5058871;28;20395;-81
2021/01/08 09:59:16;;;;;;;;;;;;;;;;;;5056911;28;20446;-82
2021/01/08 10:01:52;;;;;;;;;;;;;;;;;;5057075;28;20407;-83
2021/01/08 10:04:19;;;;;;;;;;;;;;;;;;5061755;28;20490;-82
2021/01/08 10:20:40;;;;;;;;;;;;;;;;;;5011508;28;20389;-88
2021/01/08 10:23:11;;;;;;;;;;;;;;;;;;5028560;28;20423;-88
2021/01/08 10:25:43;;;;;;;;;;;;;;;;;;5025714;28;20401;-88
2021/01/08 10:31:02;;;;;;;;;;;;;;;;;;5039131;28;20466;-88
2021/01/08 10:33:28;;;;;;;;;;;;;;;;;;5036626;28;20402;-88
2021/01/08 10:36:04;;;;;;;;;;;;;;;;;;5036902;28;20374;-89
2021/01/08 10:38:31;;;;;;;;;;;;;;;;;;5027800;28;20389;-89
2021/01/08 10:40:57;;;;;;;;;;;;;;;;;;5038930;28;20404;-89
2021/01/08 10:43:42;;;;;;;;;;;;;;;;;;5053577;28;20414;-89
2021/01/08 10:46:16;;;;;;;;;;;;;;;;;;5051053;28;20406;-89
2021/01/08 10:48:42;;;;;;;;;;;;;;;;;;5059182;28;20392;-89
2021/01/08 10:51:08;;;;;;;;;;;;;;;;;;5071274;28;20400;-90
2021/01/08 10:53:35;;;;;;;;;;;;;;;;;;5059649;28;20414;-87
2021/01/08 10:56:03;;;;;;;;;;;;;;;;;;5061098;28;20384;-84
2021/01/08 10:58:29;;;;;;;;;;;;;;;;;;5063284;28;20480;-84
2021/01/08 11:00:56;;;;;;;;;;;;;;;;;;5058724;28;20387;-85
2021/01/08 11:03:22;;;;;;;;;;;;;;;;;;5068776;28;20410;-85
2021/01/08 11:05:49;;;;;;;;;;;;;;;;;;5073795;28;20402;-84
2021/01/08 11:08:16;;;;;;;;;;;;;;;;;;5077561;28;20360;-84
2021/01/08 11:10:42;;;;;;;;;;;;;;;;;;5073563;28;20451;-84
2021/01/08 11:13:09;;;;;;;;;;;;;;;;;;5073426;28;20381;-85
2021/01/08 11:15:35;;;;;;;;;;;;;;;;;;5072604;28;20410;-82
2021/01/08 11:18:04;;;;;;;;;;;;;;;;;;5068052;28;20380;-83
2021/01/08 11:20:30;;;;;;;;;;;;;;;;;;5063081;28;20387;-84
2021/01/08 11:23:02;;;;;;;;;;;;;;;;;;5062893;28;20474;-82
2021/01/08 11:25:28;;;;;;;;;;;;;;;;;;5059948;28;20395;-83
2021/01/08 11:27:54;;;;;;;;;;;;;;;;;;5061907;28;20392;-82
2021/01/08 11:30:21;;;;;;;;;;;;;;;;;;5061507;28;20389;-82
2021/01/08 11:32:47;;;;;;;;;;;;;;;;;;5061359;28;20385;-84
2021/01/08 11:35:14;;;;;;;;;;;;;;;;;;5060403;28;20400;-83
2021/01/08 11:37:40;;;;;;;;;;;;;;;;;;5058138;28;20388;-83
2021/01/08 11:40:06;;;;;;;;;;;;;;;;;;5061946;28;20414;-84
2021/01/08 11:45:29;;;;;;;;;;;;;;;;;;5086104;28;20992;-83
2021/01/08 11:47:55;;;;;;;;;;;;;;;;;;5081634;28;20378;-83
2021/01/08 11:50:22;;;;;;;;;;;;;;;;;;5074217;28;20386;-85
2021/01/08 11:52:48;;;;;;;;;;;;;;;;;;5078932;28;20387;-83
2021/01/08 11:55:14;;;;;;;;;;;;;;;;;;5078769;28;20436;-83
2021/01/08 11:57:41;;;;;;;;;;;;;;;;;;5078178;28;20380;-83
2021/01/08 12:00:09;;;;;;;;;;;;;;;;;;5077264;28;20412;-85
2021/01/08 12:02:35;;;;;;;;;;;;;;;;;;5075961;28;20387;-83
2021/01/08 12:05:02;;;;;;;;;;;;;;;;;;5080572;28;20404;-83
2021/01/08 12:07:28;;;;;;;;;;;;;;;;;;5082082;28;20895;-83
2021/01/08 12:09:57;;;;;;;;;;;;;;;;;;5076978;28;20391;-82
2021/01/08 12:12:23;;;;;;;;;;;;;;;;;;5070282;28;20427;-81
2021/01/08 12:14:53;;;;;;;;;;;;;;;;;;5078138;28;20469;-81
2021/01/08 12:17:20;;;;;;;;;;;;;;;;;;5076996;28;20486;-82
2021/01/08 12:19:49;;;;;;;;;;;;;;;;;;5077859;28;20391;-82
2021/01/08 12:22:17;;;;;;;;;;;;;;;;;;5083369;28;20382;-82
2021/01/08 12:24:43;;;;;;;;;;;;;;;;;;5083328;28;20406;-82
2021/01/08 12:27:10;;;;;;;;;;;;;;;;;;5087032;28;20376;-82
2021/01/08 12:29:37;;;;;;;;;;;;;;;;;;5084404;28;20387;-82
2021/01/08 12:32:07;;;;;;;;;;;;;;;;;;5084270;28;20379;-85
2021/01/08 12:34:33;;;;;;;;;;;;;;;;;;5076294;28;20405;-83
2021/01/08 12:37:00;;;;;;;;;;;;;;;;;;5084171;28;20375;-84
2021/01/08 12:39:27;;;;;;;;;;;;;;;;;;5081976;28;20809;-84
2021/01/08 12:41:54;;;;;;;;;;;;;;;;;;5077767;28;20743;-85
2021/01/08 12:44:20;;;;;;;;;;;;;;;;;;5074655;28;20411;-84
2021/01/08 12:46:46;;;;;;;;;;;;;;;;;;5081798;28;20375;-85
2021/01/08 12:49:13;;;;;;;;;;;;;;;;;;5079838;28;20390;-85
2021/01/08 12:51:39;;;;;;;;;;;;;;;;;;5073169;28;20394;-83
2021/01/08 12:54:06;;;;;;;;;;;;;;;;;;5071697;28;20456;-85
2021/01/08 12:56:32;;;;;;;;;;;;;;;;;;5060797;28;20510;-85
2021/01/08 12:58:59;;;;;;;;;;;;;;;;;;5060088;28;20891;-86
2021/01/08 13:01:25;;;;;;;;;;;;;;;;;;5058898;28;20388;-83
2021/01/08 13:03:52;;;;;;;;;;;;;;;;;;5060638;28;20411;-84
2021/01/08 13:06:18;;;;;;;;;;;;;;;;;;5059699;28;20388;-83
2021/01/08 13:08:45;;;;;;;;;;;;;;;;;;5060794;28;20395;-86
2021/01/08 13:11:11;;;;;;;;;;;;;;;;;;5060421;28;20393;-85
2021/01/08 13:13:37;;;;;;;;;;;;;;;;;;5061258;28;20408;-85
2021/01/08 13:16:04;;;;;;;;;;;;;;;;;;5060936;28;20384;-84
2021/01/08 13:18:30;;;;;;;;;;;;;;;;;;5061155;28;20414;-84
2021/01/08 13:20:57;;;;;;;;;;;;;;;;;;5060660;28;20825;-85
2021/01/08 13:23:23;;;;;;;;;;;;;;;;;;5060822;28;20486;-84
2021/01/08 13:25:49;;;;;;;;;;;;;;;;;;5060330;28;20436;-84
2021/01/08 13:28:16;;;;;;;;;;;;;;;;;;5060741;28;20388;-84
2021/01/08 13:30:42;;;;;;;;;;;;;;;;;;5061413;28;20395;-84
2021/01/08 13:33:09;;;;;;;;;;;;;;;;;;5060157;28;20386;-84
2021/01/08 13:35:35;;;;;;;;;;;;;;;;;;5059967;28;20410;-84
2021/01/08 13:38:02;;;;;;;;;;;;;;;;;;5061242;28;20388;-83
2021/01/08 13:40:28;;;;;;;;;;;;;;;;;;5067408;28;20399;-82
2021/01/08 13:42:55;;;;;;;;;;;;;;;;;;5074981;28;20372;-83
2021/01/08 13:45:21;;;;;;;;;;;;;;;;;;5083848;28;20413;-83
2021/01/08 13:47:47;;;;;;;;;;;;;;;;;;5076859;28;20410;-83
2021/01/08 13:50:20;;;;;;;;;;;;;;;;;;5072273;28;20383;-84
2021/01/08 13:52:46;;;;;;;;;;;;;;;;;;5062874;28;20384;-83
2021/01/08 13:55:13;;;;;;;;;;;;;;;;;;5059012;28;20400;-84
2021/01/08 13:57:40;;;;;;;;;;;;;;;;;;5056138;28;20438;-83
2021/01/08 14:00:07;;;;;;;;;;;;;;;;;;5057288;28;20377;-83
2021/01/08 14:02:33;;;;;;;;;;;;;;;;;;5060399;28;20387;-83
2021/01/08 14:04:59;;;;;;;;;;;;;;;;;;5061576;28;20415;-83
2021/01/08 14:07:26;;;;;;;;;;;;;;;;;;5059330;28;20388;-83
2021/01/08 14:09:52;;;;;;;;;;;;;;;;;;5062914;28;20416;-83
2021/01/08 14:12:19;;;;;;;;;;;;;;;;;;5063014;28;20391;-83
2021/01/08 14:14:45;;;;;;;;;;;;;;;;;;5066331;28;20396;-83
2021/01/08 14:17:11;;;;;;;;;;;;;;;;;;5063594;28;20383;-84
2021/01/08 14:19:38;;;;;;;;;;;;;;;;;;5061133;28;20392;-83
2021/01/08 14:22:04;;;;;;;;;;;;;;;;;;5058445;28;20388;-83
2021/01/08 14:24:31;;;;;;;;;;;;;;;;;;5058911;28;20416;-83
2021/01/08 14:26:57;;;;;;;;;;;;;;;;;;5056726;28;20389;-83
2021/01/08 14:29:24;;;;;;;;;;;;;;;;;;5055726;28;20393;-83
2021/01/08 14:31:50;;;;;;;;;;;;;;;;;;5056305;28;20380;-84
2021/01/08 14:34:16;;;;;;;;;;;;;;;;;;5058797;28;20404;-84
2021/01/08 14:36:46;;;;;;;;;;;;;;;;;;5057543;28;20746;-84
2021/01/08 14:39:12;;;;;;;;;;;;;;;;;;5069555;28;20403;-83
2021/01/08 14:41:38;;;;;;;;;;;;;;;;;;5063682;28;20411;-83
2021/01/08 14:44:05;;;;;;;;;;;;;;;;;;5062168;28;20415;-82
2021/01/08 14:46:31;;;;;;;;;;;;;;;;;;5053617;28;20386;-81
2021/01/08 14:48:59;;;;;;;;;;;;;;;;;;5071687;28;20396;-81
2021/01/08 14:51:25;;;;;;;;;;;;;;;;;;5056654;28;20425;-81
2021/01/08 14:53:52;;;;;;;;;;;;;;;;;;5071892;28;20486;-81
2021/01/08 14:56:18;;;;;;;;;;;;;;;;;;5056245;28;20388;-81
2021/01/08 14:58:45;;;;;;;;;;;;;;;;;;5067449;28;20384;-82
2021/01/08 15:01:11;;;;;;;;;;;;;;;;;;5058031;28;20391;-82
2021/01/08 15:03:37;;;;;;;;;;;;;;;;;;5056279;28;20420;-82
2021/01/08 15:06:04;;;;;;;;;;;;;;;;;;5061067;28;20574;-82
2021/01/08 15:08:30;;;;;;;;;;;;;;;;;;5059532;28;20395;-82
2021/01/08 15:10:57;;;;;;;;;;;;;;;;;;5064110;28;20382;-82
2021/01/08 15:13:23;;;;;;;;;;;;;;;;;;5061154;28;20438;-82
2021/01/08 15:15:50;;;;;;;;;;;;;;;;;;5062309;28;20377;-82
2021/01/08 15:18:16;;;;;;;;;;;;;;;;;;5057400;28;20389;-82
2021/01/08 15:20:42;;;;;;;;;;;;;;;;;;5075150;28;20401;-82
2021/01/08 15:23:09;;;;;;;;;;;;;;;;;;5065306;28;20445;-82
2021/01/08 15:25:35;;;;;;;;;;;;;;;;;;5047662;28;20772;-83
2021/01/08 15:28:02;;;;;;;;;;;;;;;;;;5064716;28;20391;-83
2021/01/08 15:30:29;;;;;;;;;;;;;;;;;;5064473;28;20395;-82
2021/01/08 15:32:56;;;;;;;;;;;;;;;;;;5061319;28;20384;-87
2021/01/08 15:35:22;;;;;;;;;;;;;;;;;;5059832;28;20404;-83
2021/01/08 15:37:48;;;;;;;;;;;;;;;;;;5059505;28;20384;-82
2021/01/08 15:40:16;;;;;;;;;;;;;;;;;;5059710;28;20380;-82
2021/01/08 15:42:42;;;;;;;;;;;;;;;;;;5057850;28;20404;-82
2021/01/08 15:45:08;;;;;;;;;;;;;;;;;;5056393;28;20404;-87
2021/01/08 15:47:35;;;;;;;;;;;;;;;;;;5056073;28;20410;-82
2021/01/08 15:50:01;;;;;;;;;;;;;;;;;;5055680;28;20393;-83
2021/01/08 15:52:29;;;;;;;;;;;;;;;;;;5066968;28;20376;-81
2021/01/08 15:57:40;;;;;;;;;;;;;;;;;;5098470;28;20353;-83
2021/01/08 16:00:06;;;;;;;;;;;;;;;;;;5065415;28;20376;-81
2021/01/08 16:02:33;;;;;;;;;;;;;;;;;;5067120;28;20389;-83
2021/01/08 16:05:00;;;;;;;;;;;;;;;;;;5069332;28;20387;-82
2021/01/08 16:07:26;;;;;;;;;;;;;;;;;;5076820;28;20374;-83
2021/01/08 16:09:53;;;;;;;;;;;;;;;;;;5075892;28;20345;-82
2021/01/08 16:12:27;;;;;;;;;;;;;;;;;;5076263;28;20395;-83
2021/01/08 16:14:58;;;;;;;;;;;;;;;;;;5085423;28;20545;-83
2021/01/08 16:17:32;;;;;;;;;;;;;;;;;;5067001;28;20414;-83
2021/01/08 16:20:04;;;;;;;;;;;;;;;;;;5076356;28;20368;-82
2021/01/08 16:22:30;;;;;;;;;;;;;;;;;;5060447;28;20853;-83
2021/01/08 16:24:57;;;;;;;;;;;;;;;;;;5059308;28;20407;-84
2021/01/08 16:27:23;;;;;;;;;;;;;;;;;;5060427;28;20392;-84
2021/01/08 16:29:50;;;;;;;;;;;;;;;;;;5052764;28;20380;-83
2021/01/08 16:32:16;;;;;;;;;;;;;;;;;;5058710;28;20388;-83
2021/01/08 16:34:43;;;;;;;;;;;;;;;;;;5059772;28;20410;-83
2021/01/08 16:37:12;;;;;;;;;;;;;;;;;;5060088;28;20372;-85
2021/01/08 16:39:39;;;;;;;;;;;;;;;;;;5065146;28;20385;-84
2021/01/08 16:42:06;;;;;;;;;;;;;;;;;;5062558;28;20384;-84
2021/01/08 16:44:33;;;;;;;;;;;;;;;;;;5060439;28;20420;-81
2021/01/08 16:47:00;;;;;;;;;;;;;;;;;;5061739;28;20393;-82
2021/01/08 16:49:26;;;;;;;;;;;;;;;;;;5055391;28;20430;-82
2021/01/08 16:51:53;;;;;;;;;;;;;;;;;;5062067;28;20377;-83
2021/01/08 16:54:19;;;;;;;;;;;;;;;;;;5063614;28;20411;-82
2021/01/08 16:56:46;;;;;;;;;;;;;;;;;;5062903;28;20369;-82
2021/01/08 16:59:12;;;;;;;;;;;;;;;;;;5063676;28;20376;-82
2021/01/08 17:01:39;;;;;;;;;;;;;;;;;;5063399;28;20388;-82
2021/01/08 17:04:05;;;;;;;;;;;;;;;;;;5070740;28;20409;-82